Time;durP1;ratioP1;P1;durP2;ratioP2;P2;SDS_P1;SDS_P2;PMS_P1;PMS_P2;Temp;Humidity;BMP_temperature;BMP_pressure;BME280_temperature;BME280_humidity;BME280_pressure;Samples;Min_cycle;Max_cycle;Signal;HPM_P1;HPM_P2
2021/09/30 00:00:17;;;;;;;36.45;23.73;;;;;;;14.00;77.86;99051.13;4952574;29;20030;-77
2021/09/30 00:02:43;;;;;;;40.03;24.45;;;;;;;13.97;77.58;99047.03;4952178;29;20043;-77
2021/09/30 00:05:10;;;;;;;35.80;22.98;;;;;;;13.96;77.40;99056.44;4951756;29;20031;-78
2021/09/30 00:07:35;;;;;;;37.83;23.70;;;;;;;13.95;77.32;99053.97;4950870;29;20047;-78
2021/09/30 00:10:02;;;;;;;38.28;24.05;;;;;;;13.92;77.88;99051.81;4952340;29;20473;-78
2021/09/30 00:12:31;;;;;;;34.58;21.52;;;;;;;13.94;78.26;99060.59;4952454;29;20411;-77
2021/09/30 00:15:05;;;;;;;41.77;24.73;;;;;;;13.93;78.18;99062.56;4952081;29;20102;-78
2021/09/30 00:34:11;;;;;;;32.33;20.30;;;;;;;13.97;78.47;99060.00;4951232;29;20807;-77
2021/09/30 00:45:24;;;;;;;34.65;21.77;;;;;;;13.91;77.94;99073.06;4951942;29;20038;-77
2021/09/30 00:47:50;;;;;;;36.20;22.00;;;;;;;13.92;77.91;99071.94;4951594;29;20122;-77
2021/09/30 00:50:48;;;;;;;36.42;22.63;;;;;;;13.90;78.13;99059.56;4950956;29;20122;-77
2021/09/30 00:53:34;;;;;;;36.13;22.02;;;;;;;13.87;78.19;99071.22;4950868;29;20119;-77
2021/09/30 01:52:04;;;;;;;35.72;21.90;;;;;;;13.59;78.63;99082.16;4950390;29;20046;-78
2021/09/30 02:18:17;;;;;;;36.30;21.83;;;;;;;13.59;78.87;99085.75;4950429;29;20963;-78
2021/09/30 02:59:33;;;;;;;33.20;20.42;;;;;;;13.01;78.76;99170.28;4916555;29;20128;-77
2021/09/30 03:02:00;;;;;;;33.67;20.38;;;;;;;12.96;78.77;99186.88;4916433;29;20052;-78
2021/09/30 03:04:26;;;;;;;33.50;21.10;;;;;;;12.92;78.96;99194.91;4914045;29;20500;-77
2021/09/30 03:06:54;;;;;;;31.38;20.77;;;;;;;12.89;79.20;99198.25;4909196;29;20025;-78
2021/09/30 03:09:21;;;;;;;33.50;20.55;;;;;;;12.86;79.23;99200.75;4914004;29;20044;-77
2021/09/30 03:11:52;;;;;;;32.88;20.33;;;;;;;12.83;79.24;99204.94;4915490;29;20114;-78
2021/09/30 03:14:20;;;;;;;28.90;18.52;;;;;;;12.82;79.64;99210.75;4912032;29;20138;-78
2021/09/30 03:16:49;;;;;;;27.20;17.20;;;;;;;12.83;79.30;99212.38;4913956;29;20473;-78
2021/09/30 03:24:44;;;;;;;33.30;19.90;;;;;;;12.68;79.65;99211.44;4915220;29;20108;-78
2021/09/30 03:27:10;;;;;;;30.92;18.75;;;;;;;12.62;79.70;99210.69;4910643;29;20024;-78
2021/09/30 03:29:36;;;;;;;34.47;20.98;;;;;;;12.56;79.67;99217.34;4913016;29;20441;-78
2021/09/30 03:32:03;;;;;;;29.80;19.50;;;;;;;12.51;80.13;99212.69;4913280;29;20534;-78
2021/09/30 03:34:29;;;;;;;33.20;19.60;;;;;;;12.46;79.80;99209.97;4910811;29;20496;-78
2021/09/30 03:36:56;;;;;;;35.40;19.90;;;;;;;12.42;79.49;99208.94;4915018;29;20389;-79
2021/09/30 03:39:25;;;;;;;29.67;19.00;;;;;;;12.38;80.32;99202.38;4915635;29;20544;-78
2021/09/30 03:41:51;;;;;;;29.02;19.33;;;;;;;12.35;79.73;99194.72;4915575;29;20031;-79
2021/09/30 03:44:17;;;;;;;32.35;19.70;;;;;;;12.35;79.73;99194.72;4912945;29;20028;-78
2021/09/30 03:46:45;;;;;;;33.83;20.85;;;;;;;12.37;79.77;99195.25;4915285;29;20044;-79
2021/09/30 03:49:14;;;;;;;30.45;19.20;;;;;;;12.35;79.45;99208.47;4915149;29;20050;-78
2021/09/30 03:59:26;;;;;;;28.60;18.00;;;;;;;12.26;80.33;99229.44;4905696;29;20396;-78
2021/09/30 04:01:56;;;;;;;26.42;17.10;;;;;;;12.20;79.98;99236.94;4908370;29;20035;-78
2021/09/30 04:04:32;;;;;;;;;;;;;;;12.18;79.46;99248.19;4912116;29;20063;-77
2021/09/30 04:07:02;;;;;;;28.48;16.83;;;;;;;12.16;80.00;99249.59;4914875;29;20114;-77
2021/09/30 04:09:30;;;;;;;26.00;16.30;;;;;;;12.11;79.83;99255.16;4953837;29;20034;-76
2021/09/30 04:12:01;;;;;;;27.00;16.38;;;;;;;12.05;79.56;99259.84;4950132;29;20019;-77
2021/09/30 04:14:27;;;;;;;27.33;16.10;;;;;;;12.03;79.61;99267.56;4953796;29;20122;-76
2021/09/30 04:16:53;;;;;;;24.67;16.27;;;;;;;12.00;79.24;99265.41;4953752;29;20027;-78
2021/09/30 04:19:20;;;;;;;27.52;18.02;;;;;;;11.97;79.90;99255.75;4952951;29;20035;-78
2021/09/30 04:21:47;;;;;;;27.27;17.20;;;;;;;11.94;79.21;99252.75;4952371;29;20368;-77
2021/09/30 04:24:13;;;;;;;29.60;17.75;;;;;;;11.89;79.65;99259.94;4953470;29;20043;-76
2021/09/30 04:26:40;;;;;;;27.20;17.17;;;;;;;11.90;79.79;99261.59;4953562;29;20118;-77
2021/09/30 04:29:05;;;;;;;31.27;18.33;;;;;;;11.91;79.30;99265.13;4952798;29;20035;-77
2021/09/30 04:31:31;;;;;;;24.83;16.45;;;;;;;11.86;79.37;99266.00;4952787;29;20027;-78
2021/09/30 04:33:56;;;;;;;27.27;15.77;;;;;;;11.77;79.25;99271.28;4952991;29;20441;-78
2021/09/30 04:36:22;;;;;;;23.17;14.23;;;;;;;11.70;79.51;99275.44;4952832;29;20035;-77
2021/09/30 04:38:51;;;;;;;19.48;12.25;;;;;;;11.63;79.48;99278.50;4952894;29;20031;-78
2021/09/30 04:41:17;;;;;;;19.05;11.98;;;;;;;11.59;79.30;99285.66;4953007;29;20019;-78
2021/09/30 04:43:47;;;;;;;19.30;11.57;;;;;;;11.51;78.89;99286.25;4952827;29;20391;-78
2021/09/30 04:46:17;;;;;;;18.30;11.30;;;;;;;11.43;78.21;99296.72;4951975;29;20503;-76
2021/09/30 04:48:43;;;;;;;19.65;10.77;;;;;;;11.36;78.50;99306.38;4949483;29;20466;-78
2021/09/30 04:51:09;;;;;;;14.70;9.73;;;;;;;11.34;78.65;99308.56;4942513;29;20039;-77
2021/09/30 04:53:35;;;;;;;18.77;10.27;;;;;;;11.30;78.60;99317.38;4949132;29;20131;-77
2021/09/30 04:56:02;;;;;;;17.63;11.00;;;;;;;11.24;78.08;99313.00;4951514;29;20135;-77
2021/09/30 04:58:28;;;;;;;16.50;10.45;;;;;;;11.23;78.40;99322.31;4952141;29;20093;-76
2021/09/30 05:00:53;;;;;;;12.30;7.97;;;;;;;11.21;78.17;99335.50;4952528;29;20436;-76
2021/09/30 05:03:19;;;;;;;15.70;9.43;;;;;;;11.17;78.20;99346.25;4951344;29;20825;-77
2021/09/30 05:05:44;;;;;;;14.88;8.48;;;;;;;11.15;77.57;99350.38;4949065;29;20042;-78
2021/09/30 05:08:10;;;;;;;15.77;9.60;;;;;;;11.16;78.06;99368.50;4951855;29;20051;-76
2021/09/30 05:10:37;;;;;;;13.00;7.63;;;;;;;11.18;77.88;99374.53;4952537;29;20027;-79
2021/09/30 05:13:08;;;;;;;14.25;8.90;;;;;;;11.18;78.31;99380.03;4951875;29;20054;-79
2021/09/30 05:15:36;;;;;;;12.77;7.93;;;;;;;11.15;77.95;99366.84;4952660;29;20479;-78
2021/09/30 05:18:05;;;;;;;15.55;8.45;;;;;;;11.16;78.34;99371.25;4944312;29;20448;-78
2021/09/30 05:20:32;;;;;;;12.27;7.97;;;;;;;11.17;77.84;99370.97;4950513;29;20380;-78
2021/09/30 05:22:58;;;;;;;13.07;8.75;;;;;;;11.20;77.91;99380.56;4931327;29;20035;-78
2021/09/30 05:25:25;;;;;;;14.38;9.00;;;;;;;11.22;78.46;99377.53;4951630;29;20035;-78
2021/09/30 05:27:52;;;;;;;16.63;9.77;;;;;;;11.29;77.74;99380.81;4951556;29;20035;-79
2021/09/30 05:30:19;;;;;;;15.98;9.70;;;;;;;11.30;78.33;99386.03;4949298;29;20074;-78
2021/09/30 05:32:45;;;;;;;16.83;8.88;;;;;;;11.30;77.69;99385.22;4951707;29;20027;-78
2021/09/30 05:35:11;;;;;;;13.93;9.10;;;;;;;11.30;77.59;99391.53;4952010;29;20031;-78
2021/09/30 05:37:36;;;;;;;15.30;8.13;;;;;;;11.31;77.23;99386.88;4951393;29;20039;-78
2021/09/30 05:40:03;;;;;;;11.88;7.50;;;;;;;11.34;77.94;99393.72;4951924;29;20062;-78
2021/09/30 05:42:29;;;;;;;9.82;6.50;;;;;;;11.35;77.30;99392.59;4951611;29;20109;-77
2021/09/30 05:44:55;;;;;;;13.27;7.03;;;;;;;11.36;77.11;99394.25;4950901;29;20079;-78
2021/09/30 05:47:20;;;;;;;10.60;6.88;;;;;;;11.34;77.03;99399.19;4951433;29;20777;-77
2021/09/30 05:49:46;;;;;;;10.77;5.97;;;;;;;11.33;76.57;99406.63;4951544;29;20426;-78
2021/09/30 05:52:11;;;;;;;12.07;6.80;;;;;;;11.35;76.46;99401.69;4950491;29;20031;-77
2021/09/30 05:54:36;;;;;;;14.27;7.05;;;;;;;11.38;76.91;99409.38;4948316;29;20031;-77
2021/09/30 05:57:02;;;;;;;12.43;6.60;;;;;;;11.44;77.06;99410.16;4954539;28;20035;-78
2021/09/30 05:59:28;;;;;;;12.27;6.45;;;;;;;11.46;76.03;99411.53;4956377;29;20059;-79
2021/09/30 06:12:10;;;;;;;10.20;6.35;;;;;;;11.50;75.82;99424.72;4925769;29;20031;-78
2021/09/30 06:14:39;;;;;;;9.13;5.90;;;;;;;11.51;75.54;99434.59;4954982;29;20028;-77
2021/09/30 06:17:06;;;;;;;9.60;5.50;;;;;;;11.52;75.66;99434.34;4954108;29;20035;-79
2021/09/30 06:19:31;;;;;;;11.15;6.38;;;;;;;11.52;74.71;99441.72;4954319;29;20448;-78
2021/09/30 06:21:58;;;;;;;9.18;5.60;;;;;;;11.51;75.13;99440.94;4954883;29;20102;-79
2021/09/30 06:24:25;;;;;;;8.55;5.00;;;;;;;11.52;74.94;99444.47;4953952;29;20463;-77
2021/09/30 06:26:51;;;;;;;12.07;6.32;;;;;;;11.48;75.23;99444.22;4955022;29;20034;-78
2021/09/30 06:29:17;;;;;;;9.25;5.70;;;;;;;11.52;74.99;99453.56;4951444;29;20049;-77
2021/09/30 06:31:42;;;;;;;10.15;5.53;;;;;;;11.52;75.03;99444.47;4953549;29;20550;-76
2021/09/30 06:34:08;;;;;;;10.45;5.93;;;;;;;11.55;75.58;99446.69;4953143;29;20446;-78
2021/09/30 06:36:34;;;;;;;9.60;5.53;;;;;;;11.59;75.14;99451.34;4955135;29;20058;-78
2021/09/30 06:38:59;;;;;;;9.38;5.40;;;;;;;11.60;75.03;99446.66;4953236;29;20038;-78
2021/09/30 06:41:25;;;;;;;9.18;5.00;;;;;;;11.60;74.36;99443.91;4954761;29;20546;-77
2021/09/30 06:43:50;;;;;;;12.25;7.35;;;;;;;11.58;74.19;99444.22;4952786;29;20424;-77
2021/09/30 06:46:16;;;;;;;12.02;6.78;;;;;;;11.61;73.96;99445.56;4937910;29;20023;-78
2021/09/30 06:48:41;;;;;;;12.57;7.68;;;;;;;11.62;73.85;99453.50;4954583;29;20024;-77
2021/09/30 06:51:07;;;;;;;17.38;8.55;;;;;;;11.66;74.47;99442.81;4954881;29;20039;-77
2021/09/30 06:53:32;;;;;;;15.38;7.93;;;;;;;11.71;74.62;99448.28;4954507;29;20524;-78
2021/09/30 06:56:05;;;;;;;12.85;6.60;;;;;;;11.72;74.27;99452.69;4954080;29;20035;-77
2021/09/30 06:58:31;;;;;;;7.00;3.80;;;;;;;11.74;73.69;99460.63;4935051;29;20042;-77
2021/09/30 07:00:57;;;;;;;5.80;3.10;;;;;;;11.72;73.69;99468.34;4936367;29;20039;-77
2021/09/30 07:03:26;;;;;;;5.25;2.92;;;;;;;11.72;73.07;99471.09;4947198;29;20030;-78
2021/09/30 07:05:51;;;;;;;4.28;2.70;;;;;;;11.72;73.10;99469.19;4953074;29;20043;-76
2021/09/30 07:08:17;;;;;;;4.65;2.80;;;;;;;11.69;73.22;99468.91;4951700;28;20062;-77
2021/09/30 07:10:43;;;;;;;5.32;2.92;;;;;;;11.66;72.38;99472.19;4953342;29;20057;-78
2021/09/30 07:13:08;;;;;;;6.90;3.35;;;;;;;11.65;72.41;99478.78;4936400;29;20086;-77
2021/09/30 07:15:34;;;;;;;7.68;3.35;;;;;;;11.62;72.19;99483.75;4935996;29;20031;-77
2021/09/30 07:18:10;;;;;;;5.47;3.13;;;;;;;11.65;72.03;99485.13;4952007;29;20041;-77
2021/09/30 07:20:35;;;;;;;7.65;3.55;;;;;;;11.72;72.10;99485.66;4952930;29;20077;-76
2021/09/30 07:23:00;;;;;;;6.72;3.17;;;;;;;11.79;72.56;99485.38;4952271;29;20423;-77
2021/09/30 07:25:26;;;;;;;6.32;3.58;;;;;;;11.85;72.69;99489.75;4953756;29;20499;-78
2021/09/30 07:27:51;;;;;;;3.47;2.47;;;;;;;11.85;72.45;99500.75;4952791;29;20116;-78
2021/09/30 07:30:17;;;;;;;4.35;3.05;;;;;;;11.82;72.07;99500.50;4953839;29;20536;-77
2021/09/30 07:32:42;;;;;;;5.45;3.00;;;;;;;11.78;72.17;99502.94;4952368;29;20077;-77
2021/09/30 07:35:08;;;;;;;19.25;10.18;;;;;;;11.86;72.38;99518.03;4952306;29;20051;-76
2021/09/30 07:37:34;;;;;;;32.38;16.67;;;;;;;11.90;72.20;99519.97;4953851;29;20075;-76
2021/09/30 07:39:59;;;;;;;36.83;23.40;;;;;;;11.93;72.31;99528.75;4951891;29;20400;-75
2021/09/30 07:42:25;;;;;;;15.80;10.23;;;;;;;11.94;71.14;99525.72;4953914;29;20038;-75
2021/09/30 07:44:50;;;;;;;7.57;4.82;;;;;;;11.96;71.38;99523.53;4952023;29;20543;-78
2021/09/30 07:47:15;;;;;;;9.23;4.13;;;;;;;12.02;71.63;99529.88;4954073;29;20039;-77
2021/09/30 07:49:41;;;;;;;6.97;4.60;;;;;;;12.07;71.21;99529.84;4952053;29;20042;-76
2021/09/30 07:52:06;;;;;;;4.57;3.33;;;;;;;12.10;70.85;99533.97;4951243;29;20310;-75
2021/09/30 07:54:32;;;;;;;6.03;3.58;;;;;;;12.12;70.90;99529.00;4953796;29;20027;-76
2021/09/30 07:56:58;;;;;;;5.20;3.13;;;;;;;12.15;70.82;99531.22;4953854;29;20460;-76
2021/09/30 07:59:23;;;;;;;8.30;3.78;;;;;;;12.14;71.29;99538.63;4934716;29;20259;-76
2021/09/30 08:01:49;;;;;;;5.97;3.40;;;;;;;12.16;71.31;99535.59;4950629;29;20467;-78
2021/09/30 08:04:15;;;;;;;10.90;4.35;;;;;;;12.18;71.15;99544.41;4951901;29;20031;-80
2021/09/30 08:06:40;;;;;;;7.82;5.22;;;;;;;12.19;71.18;99552.34;4951306;29;20030;-76
2021/09/30 08:09:06;;;;;;;5.90;3.97;;;;;;;12.24;71.10;99556.19;4933953;29;20456;-78
2021/09/30 08:11:32;;;;;;;19.45;10.57;;;;;;;12.31;71.00;99556.72;4952786;29;20143;-76
2021/09/30 08:13:57;;;;;;;14.88;7.47;;;;;;;12.30;71.09;99564.13;4946348;29;20027;-76
2021/09/30 08:16:24;;;;;;;7.00;3.60;;;;;;;12.34;70.98;99558.91;4934723;29;20035;-76
2021/09/30 08:18:52;;;;;;;5.20;3.70;;;;;;;12.31;70.06;99559.47;4950777;28;20038;-79
2021/09/30 08:21:17;;;;;;;4.53;2.40;;;;;;;12.29;69.84;99564.44;4953171;29;20030;-76
2021/09/30 08:23:44;;;;;;;7.47;4.40;;;;;;;12.29;70.46;99568.00;4952428;29;20028;-76
2021/09/30 08:26:10;;;;;;;9.15;5.28;;;;;;;12.31;70.03;99570.47;4933873;29;20432;-76
2021/09/30 08:28:37;;;;;;;7.57;4.75;;;;;;;12.31;70.33;99579.53;4952152;29;20054;-77
2021/09/30 08:31:06;;;;;;;4.88;4.10;;;;;;;12.33;70.64;99574.59;4950140;29;20023;-77
2021/09/30 08:33:37;;;;;;;6.13;4.25;;;;;;;12.33;70.66;99571.84;4951083;29;20023;-78
2021/09/30 08:36:03;;;;;;;6.85;5.63;;;;;;;12.31;70.68;99584.22;4951943;29;20027;-78
2021/09/30 08:38:28;;;;;;;5.47;3.72;;;;;;;12.25;70.69;99588.91;4934859;29;20496;-77
2021/09/30 08:40:54;;;;;;;6.00;4.40;;;;;;;12.24;70.59;99589.19;4950574;29;20020;-79
2021/09/30 08:43:19;;;;;;;7.65;3.90;;;;;;;12.26;71.18;99590.56;4952773;29;20031;-76
2021/09/30 08:45:45;;;;;;;7.00;2.50;;;;;;;12.26;70.69;99590.56;4950964;29;20468;-77
2021/09/30 08:48:10;;;;;;;6.75;3.97;;;;;;;12.30;70.80;99591.66;4951848;29;20070;-77
2021/09/30 08:50:40;;;;;;;5.65;3.78;;;;;;;12.39;70.55;99589.16;4952437;29;20062;-77
2021/09/30 08:53:10;;;;;;;6.80;3.50;;;;;;;12.44;70.37;99593.81;4952292;29;20038;-76
2021/09/30 08:55:37;;;;;;;5.32;3.08;;;;;;;12.53;70.32;99596.78;4934415;29;20035;-76
2021/09/30 08:58:05;;;;;;;3.90;2.35;;;;;;;12.64;69.88;99592.91;4950093;29;20042;-76
2021/09/30 09:00:34;;;;;;;3.72;2.50;;;;;;;12.77;70.10;99583.19;4948715;29;20027;-75
2021/09/30 09:02:59;;;;;;;9.23;6.28;;;;;;;12.90;69.71;99581.75;4951234;28;20022;-76
2021/09/30 09:05:27;;;;;;;7.43;3.80;;;;;;;12.97;69.24;99575.94;4950691;29;20049;-77
2021/09/30 09:07:57;;;;;;;7.38;3.08;;;;;;;13.08;68.95;99577.50;4944978;29;20039;-75
2021/09/30 09:10:26;;;;;;;6.15;2.40;;;;;;;13.21;68.78;99576.88;4951884;29;20039;-73
2021/09/30 09:13:13;;;;;;;10.63;5.40;;;;;;;13.38;68.60;99573.72;4952037;29;20122;-73
2021/09/30 09:15:54;;;;;;;4.68;2.50;;;;;;;13.59;68.09;99567.25;4951824;29;20287;-76
2021/09/30 09:18:23;;;;;;;3.05;2.40;;;;;;;13.70;66.87;99569.63;4950829;29;20099;-74
2021/09/30 09:21:10;;;;;;;7.85;3.05;;;;;;;13.75;65.56;99571.53;4952761;29;20035;-74
2021/09/30 09:23:55;;;;;;;5.10;2.60;;;;;;;13.77;64.09;99566.53;4950524;29;20158;-72
2021/09/30 09:26:32;;;;;;;5.47;2.72;;;;;;;13.81;65.36;99575.03;4947126;29;20027;-75
2021/09/30 09:29:15;;;;;;;6.25;2.30;;;;;;;13.81;65.01;99572.28;4951351;29;20514;-75
2021/09/30 09:31:50;;;;;;;5.70;3.30;;;;;;;13.79;65.03;99577.25;4950041;28;20110;-75
2021/09/30 09:34:27;;;;;;;4.72;2.97;;;;;;;13.86;64.39;99580.50;4950249;29;20023;-75
2021/09/30 09:36:55;;;;;;;4.78;2.35;;;;;;;13.83;63.79;99578.34;4950537;29;20034;-73
2021/09/30 09:39:35;;;;;;;4.38;2.20;;;;;;;13.86;63.67;99577.75;4951449;29;20403;-75
2021/09/30 09:42:06;;;;;;;2.58;1.60;;;;;;;13.90;63.61;99572.47;4951791;29;20841;-73
2021/09/30 09:44:32;;;;;;;4.35;1.50;;;;;;;13.94;63.55;99579.88;4951639;29;20035;-75
2021/09/30 09:46:57;;;;;;;5.28;2.08;;;;;;;13.95;63.68;99580.69;4951355;29;20385;-74
2021/09/30 09:49:23;;;;;;;4.30;2.33;;;;;;;13.99;62.92;99584.50;4934726;29;20450;-74
2021/09/30 09:51:52;;;;;;;6.13;2.00;;;;;;;14.13;63.18;99593.75;4951849;29;20023;-75
2021/09/30 09:54:20;;;;;;;5.50;1.80;;;;;;;14.26;62.94;99581.19;4952139;29;20030;-73
2021/09/30 09:56:48;;;;;;;5.82;1.70;;;;;;;14.40;63.14;99573.03;4951393;29;20031;-74
2021/09/30 09:59:29;;;;;;;4.63;1.90;;;;;;;14.57;62.44;99583.59;4951427;29;20035;-75
2021/09/30 10:01:55;;;;;;;3.70;2.45;;;;;;;14.67;63.05;99587.34;4945555;29;20027;-74
2021/09/30 10:04:20;;;;;;;4.50;1.58;;;;;;;14.69;62.54;99585.94;4948133;29;20042;-75
2021/09/30 10:06:46;;;;;;;4.03;1.80;;;;;;;14.69;61.85;99580.41;4949717;29;20022;-75
2021/09/30 10:09:14;;;;;;;2.63;1.52;;;;;;;14.64;61.57;99579.66;4950127;29;20499;-75
2021/09/30 10:11:39;;;;;;;5.32;1.77;;;;;;;14.59;61.92;99584.13;4950435;29;20070;-74
2021/09/30 10:14:07;;;;;;;3.13;1.52;;;;;;;14.61;62.09;99585.75;4949904;29;20047;-73
2021/09/30 10:16:35;;;;;;;2.67;1.42;;;;;;;14.68;61.80;99577.94;4948745;29;20039;-74
2021/09/30 10:19:07;;;;;;;3.83;1.85;;;;;;;14.79;61.91;99582.25;4950755;29;20042;-74
2021/09/30 10:21:34;;;;;;;2.17;1.20;;;;;;;14.87;61.40;99578.00;4934102;29;20054;-74
2021/09/30 10:24:13;;;;;;;4.57;1.90;;;;;;;14.89;61.74;99587.59;4950055;29;20063;-75
2021/09/30 10:26:47;;;;;;;4.37;1.17;;;;;;;14.97;61.08;99580.63;4950674;29;20098;-74
2021/09/30 10:29:45;;;;;;;3.50;1.60;;;;;;;15.00;61.45;99581.94;4951669;29;20279;-75
2021/09/30 10:32:12;;;;;;;7.30;1.80;;;;;;;14.99;60.84;99580.31;4933914;29;20031;-74
2021/09/30 10:34:42;;;;;;;2.13;1.40;;;;;;;15.03;61.16;99571.13;4951313;29;20261;-74
2021/09/30 10:37:22;;;;;;;3.22;1.30;;;;;;;15.10;60.60;99572.69;4946525;29;20144;-75
2021/09/30 10:40:08;;;;;;;;;;;;;;;15.15;60.72;99576.22;4948871;29;20039;-75
2021/09/30 10:42:53;;;;;;;5.55;1.80;;;;;;;15.14;60.00;99571.81;4938430;28;19962;-73
2021/09/30 10:45:20;;;;;;;2.92;1.20;;;;;;;15.17;59.26;99570.38;4951939;29;20082;-75
2021/09/30 10:47:48;;;;;;;5.13;1.88;;;;;;;15.21;57.07;99568.66;4952782;29;20039;-75
2021/09/30 10:50:13;;;;;;;7.32;2.83;;;;;;;15.28;58.82;99565.53;4937986;29;20559;-74
2021/09/30 10:52:53;;;;;;;7.88;3.40;;;;;;;15.32;58.73;99561.00;4955331;29;20027;-74
2021/09/30 10:55:22;;;;;;;7.70;3.40;;;;;;;15.32;58.33;99561.00;4954414;29;20039;-75
2021/09/30 10:57:50;;;;;;;3.05;1.65;;;;;;;15.32;58.07;99559.09;4951883;29;20444;-75
2021/09/30 11:00:21;;;;;;;3.78;1.60;;;;;;;15.37;57.79;99557.38;4954382;29;20043;-73
2021/09/30 11:03:02;;;;;;;4.20;1.48;;;;;;;15.37;57.95;99560.13;4953290;29;20030;-73
2021/09/30 11:05:33;;;;;;;3.08;1.30;;;;;;;15.45;58.07;99560.25;4952293;29;20027;-73
2021/09/30 11:08:19;;;;;;;3.35;1.10;;;;;;;15.43;56.84;99556.97;4953507;29;20122;-72
2021/09/30 11:11:07;;;;;;;4.75;1.80;;;;;;;15.44;55.57;99558.63;4937238;29;20155;-73
2021/09/30 11:13:35;;;;;;;4.47;1.77;;;;;;;15.47;55.42;99555.25;4937612;29;20074;-74
2021/09/30 11:16:20;;;;;;;4.93;1.90;;;;;;;15.54;56.48;99557.63;4954331;29;20090;-73
2021/09/30 11:18:56;;;;;;;3.95;1.90;;;;;;;15.67;56.52;99552.44;4936788;29;20042;-73
2021/09/30 11:21:28;;;;;;;3.30;1.63;;;;;;;15.84;55.87;99554.63;4946649;29;20317;-74
2021/09/30 11:23:54;;;;;;;3.00;1.80;;;;;;;15.95;56.26;99556.09;4935243;29;20510;-74
2021/09/30 11:26:19;;;;;;;4.90;1.98;;;;;;;16.17;57.09;99555.41;4953756;29;20030;-72
2021/09/30 11:28:45;;;;;;;4.57;1.38;;;;;;;16.34;56.56;99560.34;4953297;29;20369;-74
2021/09/30 11:31:29;;;;;;;3.03;1.50;;;;;;;16.30;55.09;99559.31;4952341;29;20032;-75
2021/09/30 11:33:57;;;;;;;3.83;1.90;;;;;;;16.46;55.72;99556.25;4950341;28;20492;-73
2021/09/30 11:36:38;;;;;;;5.22;1.80;;;;;;;16.58;55.08;99564.81;4953804;29;20574;-74
2021/09/30 11:39:05;;;;;;;3.92;2.00;;;;;;;16.67;54.85;99557.44;4951866;29;20047;-78
2021/09/30 11:41:32;;;;;;;3.78;1.77;;;;;;;16.70;54.74;99561.53;4952556;29;20019;-74
2021/09/30 11:43:58;;;;;;;2.47;1.88;;;;;;;16.77;52.62;99563.88;4953764;29;20039;-75
2021/09/30 11:46:37;;;;;;;4.07;1.70;;;;;;;16.78;54.04;99557.22;4936462;29;20027;-75
2021/09/30 11:49:08;;;;;;;3.35;1.83;;;;;;;16.94;54.57;99558.50;4953219;29;20027;-75
2021/09/30 11:51:42;;;;;;;5.80;2.08;;;;;;;17.06;52.51;99560.78;4952793;29;20038;-74
2021/09/30 11:54:11;;;;;;;4.05;1.65;;;;;;;17.17;53.11;99561.34;4952188;28;20035;-75
2021/09/30 11:56:45;;;;;;;3.85;1.65;;;;;;;17.28;52.62;99558.34;4952158;29;20020;-76
2021/09/30 11:59:12;;;;;;;3.28;1.90;;;;;;;17.18;49.93;99565.75;4951717;29;20035;-74
2021/09/30 12:01:41;;;;;;;4.80;2.00;;;;;;;17.12;51.75;99567.00;4952001;29;20019;-74
2021/09/30 12:04:08;;;;;;;3.50;1.65;;;;;;;17.15;51.73;99571.91;4951969;29;20039;-74
2021/09/30 12:06:44;;;;;;;2.58;1.70;;;;;;;17.19;52.30;99561.84;4936291;29;20487;-74
2021/09/30 12:09:15;;;;;;;3.08;2.10;;;;;;;17.30;52.60;99572.69;4952557;29;20063;-74
2021/09/30 12:11:53;;;;;;;3.40;1.73;;;;;;;17.49;52.60;99567.78;4952668;29;20070;-72
2021/09/30 12:14:20;;;;;;;4.10;1.80;;;;;;;17.60;52.19;99568.34;4951604;28;20027;-73
2021/09/30 12:17:13;;;;;;;5.80;2.60;;;;;;;17.58;51.34;99578.13;4952045;29;20475;-72
2021/09/30 12:19:41;;;;;;;3.50;1.70;;;;;;;17.65;49.70;99573.75;4947094;29;20039;-73
2021/09/30 12:22:32;;;;;;;3.47;1.70;;;;;;;17.62;48.54;99570.81;4933333;29;20031;-73
2021/09/30 12:25:04;;;;;;;6.35;2.08;;;;;;;17.74;49.50;99567.44;4948888;29;20027;-74
2021/09/30 12:27:33;;;;;;;7.70;2.80;;;;;;;17.95;46.57;99562.97;4949930;29;20034;-74
2021/09/30 12:30:17;;;;;;;5.60;3.22;;;;;;;18.06;48.54;99568.28;4934369;29;20023;-74
2021/09/30 12:32:46;;;;;;;2.90;1.63;;;;;;;17.89;46.97;99569.84;4951140;29;20031;-73
2021/09/30 12:35:47;;;;;;;2.42;1.17;;;;;;;17.80;43.04;99568.97;4952532;29;20119;-74
2021/09/30 12:38:19;;;;;;;2.67;1.17;;;;;;;17.81;42.77;99568.63;4826163;29;20103;-74
2021/09/30 12:40:49;;;;;;;4.43;1.40;;;;;;;17.82;42.24;99569.47;4933722;29;20542;-74
2021/09/30 12:43:24;;;;;;;4.35;1.50;;;;;;;17.93;44.58;99559.69;4953133;29;20031;-74
2021/09/30 12:45:56;;;;;;;2.70;1.20;;;;;;;18.18;44.01;99557.41;4951838;29;20084;-74
2021/09/30 12:48:23;;;;;;;3.58;1.60;;;;;;;18.58;44.10;99553.78;4953302;29;20519;-75
2021/09/30 12:50:51;;;;;;;4.50;1.70;;;;;;;19.20;42.65;99557.47;4952773;29;20031;-75
2021/09/30 12:53:21;;;;;;;3.78;1.60;;;;;;;19.33;41.56;99550.09;4950866;29;20024;-74
2021/09/30 12:55:48;;;;;;;3.10;1.70;;;;;;;19.67;40.84;99548.41;4952320;29;20063;-75
2021/09/30 12:58:34;;;;;;;2.55;1.65;;;;;;;19.93;40.19;99542.00;4951651;29;20035;-74
2021/09/30 13:01:18;;;;;;;2.85;1.50;;;;;;;20.12;41.57;99538.81;4952097;29;20031;-72
2021/09/30 13:03:43;;;;;;;3.78;1.80;;;;;;;20.30;40.07;99534.00;4951947;29;20038;-73
2021/09/30 13:06:09;;;;;;;3.33;1.50;;;;;;;20.34;40.89;99534.94;4951348;28;20094;-73
2021/09/30 13:08:41;;;;;;;3.03;1.30;;;;;;;20.33;39.10;99540.84;4952502;29;20457;-72
2021/09/30 13:11:22;;;;;;;3.22;1.63;;;;;;;20.61;40.77;99537.56;4953449;29;20058;-74
2021/09/30 13:14:31;;;;;;;3.22;1.60;;;;;;;21.60;40.82;99542.88;4953883;29;20027;-74
2021/09/30 13:17:17;;;;;;;4.20;2.28;;;;;;;20.98;40.24;99540.66;4931641;29;20038;-73
2021/09/30 13:19:56;;;;;;;3.35;1.90;;;;;;;20.25;39.00;99548.09;4944015;29;20035;-73
2021/09/30 13:22:35;;;;;;;4.78;1.58;;;;;;;20.45;40.40;99548.47;4943618;29;20020;-74
2021/09/30 13:25:03;;;;;;;4.80;1.77;;;;;;;20.52;37.78;99540.41;4948482;29;20822;-74
2021/09/30 13:27:34;;;;;;;2.75;1.63;;;;;;;20.37;39.06;99537.06;4946211;29;20283;-74
2021/09/30 13:30:00;;;;;;;3.40;1.85;;;;;;;20.81;40.31;99536.00;4947719;29;20035;-73
2021/09/30 13:32:27;;;;;;;5.75;2.08;;;;;;;21.63;39.91;99534.66;4944644;29;20033;-73
2021/09/30 13:34:55;;;;;;;4.45;3.00;;;;;;;23.45;37.99;99533.59;4947847;29;20129;-75
2021/09/30 13:37:21;;;;;;;7.38;2.42;;;;;;;24.65;35.12;99533.84;4946357;29;20046;-74
2021/09/30 13:39:47;;;;;;;4.18;2.47;;;;;;;25.56;35.47;99534.59;4947695;29;20038;-73
2021/09/30 13:42:13;;;;;;;2.53;1.90;;;;;;;26.54;33.49;99524.25;4946955;29;20268;-74
2021/09/30 13:44:39;;;;;;;2.58;1.83;;;;;;;26.93;34.04;99520.38;4951799;29;20031;-74
2021/09/30 13:47:05;;;;;;;1.83;1.40;;;;;;;27.21;34.45;99521.97;4951632;29;20636;-74
2021/09/30 13:49:30;;;;;;;2.65;1.77;;;;;;;26.59;34.44;99519.09;4951925;29;20102;-73
2021/09/30 13:51:56;;;;;;;5.78;2.70;;;;;;;25.72;33.99;99522.47;4934394;29;20030;-74
2021/09/30 13:54:22;;;;;;;10.98;6.90;;;;;;;25.27;34.24;99521.97;4951752;29;20023;-74
2021/09/30 13:56:47;;;;;;;147.40;112.55;;;;;;;25.10;35.29;99517.59;4951439;29;20027;-73
2021/09/30 13:59:13;;;;;;;55.50;39.85;;;;;;;24.47;34.28;99523.00;4950255;29;20547;-74
2021/09/30 14:01:38;;;;;;;11.18;7.28;;;;;;;24.35;34.70;99517.53;4933981;29;20542;-74
2021/09/30 14:04:04;;;;;;;2.50;2.10;;;;;;;24.30;36.12;99521.41;4950214;29;20031;-73
2021/09/30 14:06:30;;;;;;;3.28;1.50;;;;;;;24.19;35.54;99520.34;4942496;29;20035;-74
2021/09/30 14:08:56;;;;;;;2.63;2.22;;;;;;;25.57;35.03;99510.16;4948617;29;20557;-74
2021/09/30 14:11:24;;;;;;;4.55;2.58;;;;;;;25.58;35.26;99511.78;4949051;29;20030;-73
2021/09/30 14:13:52;;;;;;;3.77;2.20;;;;;;;26.37;35.25;99501.06;4949779;29;20058;-74
2021/09/30 14:16:22;;;;;;;3.20;2.00;;;;;;;27.47;34.29;99495.72;4932564;29;20274;-74
2021/09/30 14:18:48;;;;;;;1.98;1.65;;;;;;;28.60;33.65;99501.13;4953660;28;20122;-72
2021/09/30 14:21:14;;;;;;;1.63;1.52;;;;;;;29.19;33.50;99502.22;4948464;29;20447;-71
2021/09/30 14:23:39;;;;;;;3.90;2.30;;;;;;;29.29;32.10;99509.16;4952721;29;20023;-72
2021/09/30 14:26:05;;;;;;;6.82;3.90;;;;;;;29.27;31.66;99506.69;4954022;29;20031;-72